sensor_id;sensor_type;location;lat;lon;timestamp;P1;durP1;ratioP1;P2;durP2;ratioP2
12181;SDS011;6154;51.550;12.138;2023-02-07T04:06:34;9.23;;;4.90;;
12181;SDS011;6154;51.550;12.138;2023-02-07T04:10:59;10.70;;;5.70;;
12181;SDS011;6154;51.550;12.138;2023-02-07T04:18:43;13.97;;;6.17;;
12181;SDS011;6154;51.550;12.138;2023-02-07T04:35:45;21.10;;;5.00;;
12181;SDS011;6154;51.550;12.138;2023-02-07T07:39:14;18.97;;;5.93;;
12181;SDS011;6154;51.550;12.138;2023-02-07T07:41:43;22.70;;;9.87;;
12181;SDS011;6154;51.550;12.138;2023-02-07T07:44:15;11.50;;;6.20;;
12181;SDS011;6154;51.550;12.138;2023-02-07T07:46:44;12.10;;;6.83;;
12181;SDS011;6154;51.550;12.138;2023-02-07T07:49:13;17.33;;;8.90;;
12181;SDS011;6154;51.550;12.138;2023-02-07T07:51:41;22.40;;;9.70;;
12181;SDS011;6154;51.550;12.138;2023-02-07T07:54:09;16.90;;;9.53;;
12181;SDS011;6154;51.550;12.138;2023-02-07T07:56:38;19.90;;;9.30;;
12181;SDS011;6154;51.550;12.138;2023-02-07T07:59:06;11.50;;;6.47;;
12181;SDS011;6154;51.550;12.138;2023-02-07T08:01:49;26.23;;;7.60;;
12181;SDS011;6154;51.550;12.138;2023-02-07T08:04:17;26.00;;;7.67;;
12181;SDS011;6154;51.550;12.138;2023-02-07T08:06:46;24.07;;;7.10;;
12181;SDS011;6154;51.550;12.138;2023-02-07T08:09:14;19.13;;;7.47;;
12181;SDS011;6154;51.550;12.138;2023-02-07T08:11:44;28.43;;;8.57;;
12181;SDS011;6154;51.550;12.138;2023-02-07T08:14:12;23.50;;;7.27;;
12181;SDS011;6154;51.550;12.138;2023-02-07T08:16:40;9.90;;;5.60;;
12181;SDS011;6154;51.550;12.138;2023-02-07T08:19:08;15.07;;;6.73;;
12181;SDS011;6154;51.550;12.138;2023-02-07T08:21:36;22.65;;;8.25;;
12181;SDS011;6154;51.550;12.138;2023-02-07T08:24:04;13.27;;;6.53;;
12181;SDS011;6154;51.550;12.138;2023-02-07T08:26:33;21.23;;;10.40;;
12181;SDS011;6154;51.550;12.138;2023-02-07T08:29:02;17.87;;;8.90;;
12181;SDS011;6154;51.550;12.138;2023-02-07T08:31:30;15.07;;;7.57;;
12181;SDS011;6154;51.550;12.138;2023-02-07T08:33:59;17.30;;;7.07;;
12181;SDS011;6154;51.550;12.138;2023-02-07T08:36:27;17.27;;;6.27;;
12181;SDS011;6154;51.550;12.138;2023-02-07T08:38:55;17.00;;;8.27;;
12181;SDS011;6154;51.550;12.138;2023-02-07T08:41:24;24.15;;;9.38;;
12181;SDS011;6154;51.550;12.138;2023-02-07T08:43:52;14.43;;;8.65;;
12181;SDS011;6154;51.550;12.138;2023-02-07T08:46:22;21.90;;;9.38;;
12181;SDS011;6154;51.550;12.138;2023-02-07T08:48:50;20.40;;;7.75;;
12181;SDS011;6154;51.550;12.138;2023-02-07T08:51:18;19.52;;;8.00;;
12181;SDS011;6154;51.550;12.138;2023-02-07T08:53:47;23.70;;;10.13;;
12181;SDS011;6154;51.550;12.138;2023-02-07T08:56:15;15.60;;;8.35;;
12181;SDS011;6154;51.550;12.138;2023-02-07T08:58:43;17.67;;;9.77;;
12181;SDS011;6154;51.550;12.138;2023-02-07T09:01:11;25.08;;;10.23;;
12181;SDS011;6154;51.550;12.138;2023-02-07T09:03:41;22.35;;;9.30;;
12181;SDS011;6154;51.550;12.138;2023-02-07T09:06:09;24.42;;;11.48;;
12181;SDS011;6154;51.550;12.138;2023-02-07T09:08:37;28.27;;;10.88;;
12181;SDS011;6154;51.550;12.138;2023-02-07T09:11:06;22.70;;;10.52;;
12181;SDS011;6154;51.550;12.138;2023-02-07T09:13:35;19.45;;;8.85;;
12181;SDS011;6154;51.550;12.138;2023-02-07T09:16:04;22.48;;;10.88;;
12181;SDS011;6154;51.550;12.138;2023-02-07T09:18:33;24.70;;;10.75;;
12181;SDS011;6154;51.550;12.138;2023-02-07T09:21:03;18.42;;;9.52;;
12181;SDS011;6154;51.550;12.138;2023-02-07T09:23:31;21.85;;;9.35;;
12181;SDS011;6154;51.550;12.138;2023-02-07T09:26:02;29.90;;;11.18;;
12181;SDS011;6154;51.550;12.138;2023-02-07T09:28:32;24.92;;;10.93;;
12181;SDS011;6154;51.550;12.138;2023-02-07T09:31:05;20.92;;;9.30;;
12181;SDS011;6154;51.550;12.138;2023-02-07T09:33:36;18.70;;;8.32;;
12181;SDS011;6154;51.550;12.138;2023-02-07T09:36:06;24.80;;;9.63;;
12181;SDS011;6154;51.550;12.138;2023-02-07T09:38:45;21.25;;;9.90;;
12181;SDS011;6154;51.550;12.138;2023-02-07T09:41:16;25.23;;;12.23;;
12181;SDS011;6154;51.550;12.138;2023-02-07T09:43:52;22.87;;;10.65;;
12181;SDS011;6154;51.550;12.138;2023-02-07T09:46:32;23.77;;;11.20;;
12181;SDS011;6154;51.550;12.138;2023-02-07T09:49:04;25.98;;;9.73;;
12181;SDS011;6154;51.550;12.138;2023-02-07T09:51:39;23.58;;;11.77;;
12181;SDS011;6154;51.550;12.138;2023-02-07T09:54:11;25.00;;;10.98;;
12181;SDS011;6154;51.550;12.138;2023-02-07T09:56:46;26.00;;;10.68;;
12181;SDS011;6154;51.550;12.138;2023-02-07T09:59:17;26.70;;;12.02;;
12181;SDS011;6154;51.550;12.138;2023-02-07T10:01:51;31.05;;;12.32;;
12181;SDS011;6154;51.550;12.138;2023-02-07T10:04:26;27.50;;;12.90;;
12181;SDS011;6154;51.550;12.138;2023-02-07T10:06:58;35.08;;;13.95;;
12181;SDS011;6154;51.550;12.138;2023-02-07T10:09:28;33.30;;;12.68;;
12181;SDS011;6154;51.550;12.138;2023-02-07T10:11:59;28.38;;;13.82;;
12181;SDS011;6154;51.550;12.138;2023-02-07T10:14:41;30.17;;;12.20;;
12181;SDS011;6154;51.550;12.138;2023-02-07T10:17:25;29.87;;;14.20;;
12181;SDS011;6154;51.550;12.138;2023-02-07T10:20:23;29.87;;;13.60;;
12181;SDS011;6154;51.550;12.138;2023-02-07T10:23:01;30.85;;;13.50;;
12181;SDS011;6154;51.550;12.138;2023-02-07T10:25:38;38.47;;;14.23;;
12181;SDS011;6154;51.550;12.138;2023-02-07T10:28:33;26.98;;;12.43;;
12181;SDS011;6154;51.550;12.138;2023-02-07T10:31:14;35.38;;;12.90;;
12181;SDS011;6154;51.550;12.138;2023-02-07T10:33:46;32.65;;;12.95;;
12181;SDS011;6154;51.550;12.138;2023-02-07T10:36:16;31.85;;;13.02;;
12181;SDS011;6154;51.550;12.138;2023-02-07T10:38:48;30.12;;;13.98;;
12181;SDS011;6154;51.550;12.138;2023-02-07T10:41:36;35.25;;;14.30;;
12181;SDS011;6154;51.550;12.138;2023-02-07T10:44:05;38.80;;;14.02;;
12181;SDS011;6154;51.550;12.138;2023-02-07T10:46:39;32.47;;;12.93;;
12181;SDS011;6154;51.550;12.138;2023-02-07T10:49:12;35.60;;;14.23;;
12181;SDS011;6154;51.550;12.138;2023-02-07T10:51:51;31.83;;;13.95;;
12181;SDS011;6154;51.550;12.138;2023-02-07T10:54:24;27.20;;;12.50;;
12181;SDS011;6154;51.550;12.138;2023-02-07T10:56:53;26.73;;;11.02;;
12181;SDS011;6154;51.550;12.138;2023-02-07T10:59:30;31.58;;;13.23;;
12181;SDS011;6154;51.550;12.138;2023-02-07T11:02:34;29.00;;;12.52;;
12181;SDS011;6154;51.550;12.138;2023-02-07T11:05:25;36.70;;;13.32;;
12181;SDS011;6154;51.550;12.138;2023-02-07T11:07:59;28.42;;;11.98;;
12181;SDS011;6154;51.550;12.138;2023-02-07T11:10:33;33.75;;;13.73;;
12181;SDS011;6154;51.550;12.138;2023-02-07T11:13:04;30.65;;;14.48;;
12181;SDS011;6154;51.550;12.138;2023-02-07T11:15:44;30.95;;;13.10;;
12181;SDS011;6154;51.550;12.138;2023-02-07T11:21:22;37.03;;;13.73;;
12181;SDS011;6154;51.550;12.138;2023-02-07T11:23:55;31.58;;;11.55;;
12181;SDS011;6154;51.550;12.138;2023-02-07T11:26:27;35.83;;;13.25;;
12181;SDS011;6154;51.550;12.138;2023-02-07T11:29:00;29.40;;;13.13;;
12181;SDS011;6154;51.550;12.138;2023-02-07T11:31:34;33.03;;;12.52;;
12181;SDS011;6154;51.550;12.138;2023-02-07T11:34:08;29.45;;;12.98;;
12181;SDS011;6154;51.550;12.138;2023-02-07T11:36:48;35.88;;;12.85;;
12181;SDS011;6154;51.550;12.138;2023-02-07T11:39:17;31.23;;;13.00;;
12181;SDS011;6154;51.550;12.138;2023-02-07T11:41:53;33.28;;;13.95;;
12181;SDS011;6154;51.550;12.138;2023-02-07T11:44:26;32.25;;;13.25;;
12181;SDS011;6154;51.550;12.138;2023-02-07T11:46:56;40.08;;;14.50;;
12181;SDS011;6154;51.550;12.138;2023-02-07T11:49:33;35.30;;;13.85;;
12181;SDS011;6154;51.550;12.138;2023-02-07T11:52:08;29.35;;;12.45;;
12181;SDS011;6154;51.550;12.138;2023-02-07T11:54:38;37.28;;;15.48;;
12181;SDS011;6154;51.550;12.138;2023-02-07T11:57:09;37.90;;;13.93;;
12181;SDS011;6154;51.550;12.138;2023-02-07T11:59:44;29.60;;;13.70;;
12181;SDS011;6154;51.550;12.138;2023-02-07T12:02:16;33.28;;;13.38;;
12181;SDS011;6154;51.550;12.138;2023-02-07T12:04:47;36.58;;;14.87;;
12181;SDS011;6154;51.550;12.138;2023-02-07T12:07:17;30.05;;;13.15;;
12181;SDS011;6154;51.550;12.138;2023-02-07T12:09:52;37.47;;;14.07;;
12181;SDS011;6154;51.550;12.138;2023-02-07T12:12:27;39.25;;;16.12;;
12181;SDS011;6154;51.550;12.138;2023-02-07T12:15:05;34.42;;;14.05;;
12181;SDS011;6154;51.550;12.138;2023-02-07T12:17:38;29.98;;;12.32;;
12181;SDS011;6154;51.550;12.138;2023-02-07T12:20:12;29.25;;;13.75;;
12181;SDS011;6154;51.550;12.138;2023-02-07T12:22:49;32.67;;;13.82;;
12181;SDS011;6154;51.550;12.138;2023-02-07T12:25:44;31.62;;;13.73;;
12181;SDS011;6154;51.550;12.138;2023-02-07T12:28:20;32.05;;;12.45;;
12181;SDS011;6154;51.550;12.138;2023-02-07T12:30:54;28.60;;;14.07;;
12181;SDS011;6154;51.550;12.138;2023-02-07T12:33:32;28.08;;;11.68;;
12181;SDS011;6154;51.550;12.138;2023-02-07T12:36:08;26.50;;;11.85;;
12181;SDS011;6154;51.550;12.138;2023-02-07T12:38:41;28.27;;;12.30;;
12181;SDS011;6154;51.550;12.138;2023-02-07T12:41:15;36.75;;;13.60;;
12181;SDS011;6154;51.550;12.138;2023-02-07T12:43:55;28.35;;;12.37;;
12181;SDS011;6154;51.550;12.138;2023-02-07T12:46:31;42.85;;;17.35;;
12181;SDS011;6154;51.550;12.138;2023-02-07T12:49:30;42.70;;;17.98;;
12181;SDS011;6154;51.550;12.138;2023-02-07T12:52:25;36.35;;;16.92;;
12181;SDS011;6154;51.550;12.138;2023-02-07T12:55:07;36.33;;;15.65;;
12181;SDS011;6154;51.550;12.138;2023-02-07T12:57:48;38.67;;;17.45;;
12181;SDS011;6154;51.550;12.138;2023-02-07T13:00:26;35.08;;;13.95;;
12181;SDS011;6154;51.550;12.138;2023-02-07T13:03:04;26.48;;;12.95;;
12181;SDS011;6154;51.550;12.138;2023-02-07T13:05:49;31.10;;;13.50;;
12181;SDS011;6154;51.550;12.138;2023-02-07T13:08:27;25.27;;;11.30;;
12181;SDS011;6154;51.550;12.138;2023-02-07T13:11:05;31.37;;;12.65;;
12181;SDS011;6154;51.550;12.138;2023-02-07T13:13:47;23.25;;;11.20;;
12181;SDS011;6154;51.550;12.138;2023-02-07T13:16:26;24.58;;;10.45;;
12181;SDS011;6154;51.550;12.138;2023-02-07T13:19:06;25.75;;;11.50;;
12181;SDS011;6154;51.550;12.138;2023-02-07T13:21:43;24.85;;;12.23;;
12181;SDS011;6154;51.550;12.138;2023-02-07T13:24:18;25.17;;;12.43;;
12181;SDS011;6154;51.550;12.138;2023-02-07T13:26:51;27.02;;;12.57;;
12181;SDS011;6154;51.550;12.138;2023-02-07T13:29:23;29.95;;;13.23;;
12181;SDS011;6154;51.550;12.138;2023-02-07T13:31:55;29.63;;;12.95;;
12181;SDS011;6154;51.550;12.138;2023-02-07T13:34:28;28.08;;;13.38;;
12181;SDS011;6154;51.550;12.138;2023-02-07T13:36:59;28.12;;;12.43;;
12181;SDS011;6154;51.550;12.138;2023-02-07T13:39:45;27.83;;;11.27;;
12181;SDS011;6154;51.550;12.138;2023-02-07T13:42:24;27.55;;;12.88;;
12181;SDS011;6154;51.550;12.138;2023-02-07T13:44:56;27.73;;;12.18;;
12181;SDS011;6154;51.550;12.138;2023-02-07T13:47:42;27.00;;;11.68;;
12181;SDS011;6154;51.550;12.138;2023-02-07T13:50:24;26.33;;;12.00;;
12181;SDS011;6154;51.550;12.138;2023-02-07T13:53:07;28.27;;;12.98;;
12181;SDS011;6154;51.550;12.138;2023-02-07T13:55:44;32.85;;;13.80;;
12181;SDS011;6154;51.550;12.138;2023-02-07T14:01:35;26.73;;;13.07;;
12181;SDS011;6154;51.550;12.138;2023-02-07T14:04:13;31.98;;;14.90;;
12181;SDS011;6154;51.550;12.138;2023-02-07T14:06:42;29.23;;;12.65;;
12181;SDS011;6154;51.550;12.138;2023-02-07T14:09:14;29.33;;;12.15;;
12181;SDS011;6154;51.550;12.138;2023-02-07T14:11:47;29.12;;;12.18;;
12181;SDS011;6154;51.550;12.138;2023-02-07T14:14:24;25.70;;;12.77;;
12181;SDS011;6154;51.550;12.138;2023-02-07T14:16:55;26.30;;;13.00;;
12181;SDS011;6154;51.550;12.138;2023-02-07T14:22:19;29.15;;;12.68;;
12181;SDS011;6154;51.550;12.138;2023-02-07T14:30:34;24.15;;;11.50;;
12181;SDS011;6154;51.550;12.138;2023-02-07T14:33:27;30.62;;;13.35;;
12181;SDS011;6154;51.550;12.138;2023-02-07T14:36:06;25.10;;;11.98;;
12181;SDS011;6154;51.550;12.138;2023-02-07T14:38:59;27.30;;;12.48;;
12181;SDS011;6154;51.550;12.138;2023-02-07T14:41:32;32.22;;;12.88;;
12181;SDS011;6154;51.550;12.138;2023-02-07T14:44:03;25.50;;;12.52;;
12181;SDS011;6154;51.550;12.138;2023-02-07T14:46:37;26.02;;;13.18;;
12181;SDS011;6154;51.550;12.138;2023-02-07T14:49:11;27.55;;;13.20;;
12181;SDS011;6154;51.550;12.138;2023-02-07T14:51:45;25.50;;;11.88;;
12181;SDS011;6154;51.550;12.138;2023-02-07T14:54:17;28.08;;;12.15;;
12181;SDS011;6154;51.550;12.138;2023-02-07T14:56:50;28.60;;;12.23;;
12181;SDS011;6154;51.550;12.138;2023-02-07T14:59:27;26.40;;;12.77;;
12181;SDS011;6154;51.550;12.138;2023-02-07T15:02:24;25.27;;;13.00;;
12181;SDS011;6154;51.550;12.138;2023-02-07T15:05:10;27.02;;;11.98;;
12181;SDS011;6154;51.550;12.138;2023-02-07T15:07:46;31.05;;;12.27;;
12181;SDS011;6154;51.550;12.138;2023-02-07T15:10:18;29.40;;;13.62;;
12181;SDS011;6154;51.550;12.138;2023-02-07T15:12:49;22.33;;;12.10;;
12181;SDS011;6154;51.550;12.138;2023-02-07T15:15:22;25.48;;;11.80;;
12181;SDS011;6154;51.550;12.138;2023-02-07T15:17:54;29.65;;;12.98;;
12181;SDS011;6154;51.550;12.138;2023-02-07T15:20:26;28.23;;;13.62;;
12181;SDS011;6154;51.550;12.138;2023-02-07T15:23:01;31.25;;;13.55;;
12181;SDS011;6154;51.550;12.138;2023-02-07T15:25:33;29.20;;;13.13;;
12181;SDS011;6154;51.550;12.138;2023-02-07T15:28:03;30.10;;;13.57;;
12181;SDS011;6154;51.550;12.138;2023-02-07T15:30:52;24.80;;;12.00;;
12181;SDS011;6154;51.550;12.138;2023-02-07T15:33:22;21.48;;;11.55;;
12181;SDS011;6154;51.550;12.138;2023-02-07T15:35:54;30.25;;;13.62;;
12181;SDS011;6154;51.550;12.138;2023-02-07T15:38:24;27.20;;;11.95;;
12181;SDS011;6154;51.550;12.138;2023-02-07T15:40:54;24.15;;;11.57;;
12181;SDS011;6154;51.550;12.138;2023-02-07T15:43:24;29.50;;;11.50;;
12181;SDS011;6154;51.550;12.138;2023-02-07T15:45:58;26.90;;;13.25;;
12181;SDS011;6154;51.550;12.138;2023-02-07T15:48:29;28.33;;;11.77;;
12181;SDS011;6154;51.550;12.138;2023-02-07T15:50:58;30.35;;;13.43;;
12181;SDS011;6154;51.550;12.138;2023-02-07T15:53:32;25.37;;;12.45;;
12181;SDS011;6154;51.550;12.138;2023-02-07T15:56:00;23.55;;;11.63;;
12181;SDS011;6154;51.550;12.138;2023-02-07T15:58:33;25.77;;;11.95;;
12181;SDS011;6154;51.550;12.138;2023-02-07T16:01:03;29.95;;;12.90;;
12181;SDS011;6154;51.550;12.138;2023-02-07T16:03:36;33.00;;;13.75;;
12181;SDS011;6154;51.550;12.138;2023-02-07T16:06:09;30.73;;;13.55;;
12181;SDS011;6154;51.550;12.138;2023-02-07T16:08:45;29.23;;;12.07;;
12181;SDS011;6154;51.550;12.138;2023-02-07T16:11:33;24.92;;;12.18;;
12181;SDS011;6154;51.550;12.138;2023-02-07T16:14:08;24.35;;;12.57;;
12181;SDS011;6154;51.550;12.138;2023-02-07T16:16:46;30.02;;;13.13;;
12181;SDS011;6154;51.550;12.138;2023-02-07T16:19:17;33.58;;;12.02;;
12181;SDS011;6154;51.550;12.138;2023-02-07T16:21:49;32.60;;;15.38;;
12181;SDS011;6154;51.550;12.138;2023-02-07T16:24:21;26.83;;;11.52;;
12181;SDS011;6154;51.550;12.138;2023-02-07T16:26:53;32.80;;;11.98;;
12181;SDS011;6154;51.550;12.138;2023-02-07T16:29:23;29.58;;;11.73;;
12181;SDS011;6154;51.550;12.138;2023-02-07T16:31:52;24.75;;;10.93;;
12181;SDS011;6154;51.550;12.138;2023-02-07T16:34:22;23.50;;;11.12;;
12181;SDS011;6154;51.550;12.138;2023-02-07T16:36:52;23.55;;;11.75;;
12181;SDS011;6154;51.550;12.138;2023-02-07T16:39:22;24.63;;;11.77;;
12181;SDS011;6154;51.550;12.138;2023-02-07T16:41:51;30.17;;;13.35;;
12181;SDS011;6154;51.550;12.138;2023-02-07T16:44:23;30.17;;;12.43;;
12181;SDS011;6154;51.550;12.138;2023-02-07T16:46:54;32.25;;;13.77;;
12181;SDS011;6154;51.550;12.138;2023-02-07T16:49:22;27.00;;;13.48;;
12181;SDS011;6154;51.550;12.138;2023-02-07T16:51:52;26.33;;;12.37;;
12181;SDS011;6154;51.550;12.138;2023-02-07T16:54:20;25.88;;;12.70;;
12181;SDS011;6154;51.550;12.138;2023-02-07T16:56:51;31.08;;;12.43;;
12181;SDS011;6154;51.550;12.138;2023-02-07T16:59:21;30.17;;;12.70;;
12181;SDS011;6154;51.550;12.138;2023-02-07T17:01:51;28.27;;;14.25;;
12181;SDS011;6154;51.550;12.138;2023-02-07T17:04:21;27.80;;;12.82;;
12181;SDS011;6154;51.550;12.138;2023-02-07T17:06:49;24.33;;;11.50;;
12181;SDS011;6154;51.550;12.138;2023-02-07T17:09:18;29.27;;;11.25;;
12181;SDS011;6154;51.550;12.138;2023-02-07T17:11:49;32.30;;;12.13;;
12181;SDS011;6154;51.550;12.138;2023-02-07T17:14:21;25.90;;;11.60;;
12181;SDS011;6154;51.550;12.138;2023-02-07T17:16:49;22.83;;;12.13;;
12181;SDS011;6154;51.550;12.138;2023-02-07T17:19:19;22.45;;;10.18;;
12181;SDS011;6154;51.550;12.138;2023-02-07T17:21:49;26.80;;;11.90;;
12181;SDS011;6154;51.550;12.138;2023-02-07T17:24:18;28.08;;;12.70;;
12181;SDS011;6154;51.550;12.138;2023-02-07T17:26:48;24.08;;;12.02;;
12181;SDS011;6154;51.550;12.138;2023-02-07T17:29:20;26.58;;;11.65;;
12181;SDS011;6154;51.550;12.138;2023-02-07T17:31:50;22.40;;;11.38;;
12181;SDS011;6154;51.550;12.138;2023-02-07T17:34:18;29.12;;;12.63;;
12181;SDS011;6154;51.550;12.138;2023-02-07T17:36:47;26.05;;;11.82;;
12181;SDS011;6154;51.550;12.138;2023-02-07T17:39:18;23.10;;;11.32;;
12181;SDS011;6154;51.550;12.138;2023-02-07T17:41:46;29.83;;;12.88;;
12181;SDS011;6154;51.550;12.138;2023-02-07T17:44:16;30.90;;;12.90;;
12181;SDS011;6154;51.550;12.138;2023-02-07T17:46:47;21.83;;;11.20;;
12181;SDS011;6154;51.550;12.138;2023-02-07T17:49:15;24.70;;;12.77;;
12181;SDS011;6154;51.550;12.138;2023-02-07T17:51:44;25.90;;;12.30;;
12181;SDS011;6154;51.550;12.138;2023-02-07T17:54:12;31.20;;;13.88;;
12181;SDS011;6154;51.550;12.138;2023-02-07T17:56:41;31.15;;;15.20;;
12181;SDS011;6154;51.550;12.138;2023-02-07T17:59:11;33.17;;;13.25;;
12181;SDS011;6154;51.550;12.138;2023-02-07T18:01:48;31.67;;;14.87;;
12181;SDS011;6154;51.550;12.138;2023-02-07T18:04:16;34.25;;;14.00;;
12181;SDS011;6154;51.550;12.138;2023-02-07T18:06:46;32.40;;;14.87;;
12181;SDS011;6154;51.550;12.138;2023-02-07T18:09:15;35.17;;;14.65;;
12181;SDS011;6154;51.550;12.138;2023-02-07T18:11:45;29.92;;;12.98;;
12181;SDS011;6154;51.550;12.138;2023-02-07T18:14:14;31.92;;;13.95;;
12181;SDS011;6154;51.550;12.138;2023-02-07T18:16:43;30.20;;;13.98;;
12181;SDS011;6154;51.550;12.138;2023-02-07T18:19:13;30.20;;;11.95;;
12181;SDS011;6154;51.550;12.138;2023-02-07T18:21:43;28.75;;;14.57;;
12181;SDS011;6154;51.550;12.138;2023-02-07T18:24:11;33.72;;;13.88;;
12181;SDS011;6154;51.550;12.138;2023-02-07T18:26:40;29.27;;;13.77;;
12181;SDS011;6154;51.550;12.138;2023-02-07T18:29:08;29.30;;;13.57;;
12181;SDS011;6154;51.550;12.138;2023-02-07T18:31:36;34.47;;;13.00;;
12181;SDS011;6154;51.550;12.138;2023-02-07T18:34:06;29.50;;;13.95;;
12181;SDS011;6154;51.550;12.138;2023-02-07T18:36:34;38.35;;;15.65;;
12181;SDS011;6154;51.550;12.138;2023-02-07T18:39:06;31.15;;;13.88;;
12181;SDS011;6154;51.550;12.138;2023-02-07T18:41:34;28.58;;;13.82;;
12181;SDS011;6154;51.550;12.138;2023-02-07T18:44:03;26.87;;;12.50;;
12181;SDS011;6154;51.550;12.138;2023-02-07T18:46:32;28.87;;;13.13;;
12181;SDS011;6154;51.550;12.138;2023-02-07T18:49:00;23.17;;;10.50;;
12181;SDS011;6154;51.550;12.138;2023-02-07T18:51:30;19.05;;;10.27;;
12181;SDS011;6154;51.550;12.138;2023-02-07T18:53:58;15.07;;;8.77;;
12181;SDS011;6154;51.550;12.138;2023-02-07T18:56:26;31.12;;;14.35;;
12181;SDS011;6154;51.550;12.138;2023-02-07T18:58:54;33.33;;;13.07;;
12181;SDS011;6154;51.550;12.138;2023-02-07T19:01:23;33.03;;;10.57;;
12181;SDS011;6154;51.550;12.138;2023-02-07T19:03:53;27.20;;;11.23;;
12181;SDS011;6154;51.550;12.138;2023-02-07T19:06:22;26.08;;;11.07;;
12181;SDS011;6154;51.550;12.138;2023-02-07T19:08:53;25.30;;;13.02;;
12181;SDS011;6154;51.550;12.138;2023-02-07T19:11:24;32.95;;;14.57;;
12181;SDS011;6154;51.550;12.138;2023-02-07T19:13:52;32.80;;;13.23;;
12181;SDS011;6154;51.550;12.138;2023-02-07T19:16:21;34.58;;;13.80;;
12181;SDS011;6154;51.550;12.138;2023-02-07T19:18:50;31.15;;;13.95;;
12181;SDS011;6154;51.550;12.138;2023-02-07T19:21:21;38.63;;;16.33;;
12181;SDS011;6154;51.550;12.138;2023-02-07T19:23:54;31.37;;;13.70;;
12181;SDS011;6154;51.550;12.138;2023-02-07T19:26:27;41.42;;;17.35;;
12181;SDS011;6154;51.550;12.138;2023-02-07T19:28:56;38.83;;;17.58;;
12181;SDS011;6154;51.550;12.138;2023-02-07T19:31:24;40.72;;;17.90;;
12181;SDS011;6154;51.550;12.138;2023-02-07T19:33:55;31.65;;;14.87;;
12181;SDS011;6154;51.550;12.138;2023-02-07T19:36:25;29.35;;;15.65;;
12181;SDS011;6154;51.550;12.138;2023-02-07T19:38:55;40.80;;;17.80;;
12181;SDS011;6154;51.550;12.138;2023-02-07T19:41:25;31.40;;;13.93;;
12181;SDS011;6154;51.550;12.138;2023-02-07T19:43:55;40.78;;;16.12;;
12181;SDS011;6154;51.550;12.138;2023-02-07T19:46:24;41.15;;;16.17;;
12181;SDS011;6154;51.550;12.138;2023-02-07T19:48:53;35.35;;;15.73;;
12181;SDS011;6154;51.550;12.138;2023-02-07T19:51:22;41.42;;;15.32;;
12181;SDS011;6154;51.550;12.138;2023-02-07T19:53:53;38.40;;;15.43;;
12181;SDS011;6154;51.550;12.138;2023-02-07T19:56:28;36.78;;;15.02;;
12181;SDS011;6154;51.550;12.138;2023-02-07T19:58:59;40.55;;;16.27;;
12181;SDS011;6154;51.550;12.138;2023-02-07T20:01:31;35.78;;;13.43;;
12181;SDS011;6154;51.550;12.138;2023-02-07T20:04:01;38.30;;;15.23;;
12181;SDS011;6154;51.550;12.138;2023-02-07T20:06:31;37.85;;;14.40;;
12181;SDS011;6154;51.550;12.138;2023-02-07T20:09:03;35.67;;;13.90;;
12181;SDS011;6154;51.550;12.138;2023-02-07T20:11:32;34.38;;;13.70;;
12181;SDS011;6154;51.550;12.138;2023-02-07T20:14:01;36.08;;;15.45;;
12181;SDS011;6154;51.550;12.138;2023-02-07T20:16:32;40.33;;;16.40;;
12181;SDS011;6154;51.550;12.138;2023-02-07T20:19:02;37.28;;;15.48;;
12181;SDS011;6154;51.550;12.138;2023-02-07T20:21:32;33.25;;;14.13;;
12181;SDS011;6154;51.550;12.138;2023-02-07T20:24:03;36.00;;;14.43;;
12181;SDS011;6154;51.550;12.138;2023-02-07T20:26:33;32.88;;;15.13;;
12181;SDS011;6154;51.550;12.138;2023-02-07T20:29:04;36.00;;;16.73;;
12181;SDS011;6154;51.550;12.138;2023-02-07T20:31:35;34.53;;;15.35;;
12181;SDS011;6154;51.550;12.138;2023-02-07T20:34:04;35.55;;;15.55;;
12181;SDS011;6154;51.550;12.138;2023-02-07T20:36:34;33.38;;;16.10;;
12181;SDS011;6154;51.550;12.138;2023-02-07T20:39:08;33.30;;;14.45;;
12181;SDS011;6154;51.550;12.138;2023-02-07T20:41:38;33.20;;;14.25;;
12181;SDS011;6154;51.550;12.138;2023-02-07T20:44:09;36.80;;;15.18;;
12181;SDS011;6154;51.550;12.138;2023-02-07T20:46:39;30.50;;;14.68;;
12181;SDS011;6154;51.550;12.138;2023-02-07T20:49:13;39.80;;;13.73;;
12181;SDS011;6154;51.550;12.138;2023-02-07T20:51:45;32.53;;;15.43;;
12181;SDS011;6154;51.550;12.138;2023-02-07T20:54:17;41.13;;;15.57;;
12181;SDS011;6154;51.550;12.138;2023-02-07T20:56:46;34.53;;;15.05;;
12181;SDS011;6154;51.550;12.138;2023-02-07T20:59:16;42.65;;;15.30;;
12181;SDS011;6154;51.550;12.138;2023-02-07T21:01:46;34.28;;;15.00;;
12181;SDS011;6154;51.550;12.138;2023-02-07T21:04:14;30.60;;;14.25;;
12181;SDS011;6154;51.550;12.138;2023-02-07T21:06:43;30.77;;;13.00;;
12181;SDS011;6154;51.550;12.138;2023-02-07T21:09:12;30.20;;;13.20;;
12181;SDS011;6154;51.550;12.138;2023-02-07T21:11:44;33.60;;;13.25;;
12181;SDS011;6154;51.550;12.138;2023-02-07T21:14:14;36.33;;;15.43;;
12181;SDS011;6154;51.550;12.138;2023-02-07T21:16:45;35.67;;;13.80;;
12181;SDS011;6154;51.550;12.138;2023-02-07T21:19:14;36.67;;;13.95;;
12181;SDS011;6154;51.550;12.138;2023-02-07T21:21:43;30.15;;;14.25;;
12181;SDS011;6154;51.550;12.138;2023-02-07T21:24:13;39.67;;;15.15;;
12181;SDS011;6154;51.550;12.138;2023-02-07T21:26:45;32.47;;;15.70;;
12181;SDS011;6154;51.550;12.138;2023-02-07T21:29:14;23.75;;;9.60;;
12181;SDS011;6154;51.550;12.138;2023-02-07T21:31:42;32.77;;;11.97;;
12181;SDS011;6154;51.550;12.138;2023-02-07T21:34:11;29.60;;;14.52;;
12181;SDS011;6154;51.550;12.138;2023-02-07T21:36:42;42.17;;;16.00;;
12181;SDS011;6154;51.550;12.138;2023-02-07T21:39:10;36.60;;;12.37;;
12181;SDS011;6154;51.550;12.138;2023-02-07T21:41:39;30.62;;;13.82;;
12181;SDS011;6154;51.550;12.138;2023-02-07T21:44:11;36.33;;;13.95;;
12181;SDS011;6154;51.550;12.138;2023-02-07T21:46:40;43.58;;;15.02;;
12181;SDS011;6154;51.550;12.138;2023-02-07T21:49:13;23.45;;;12.27;;
12181;SDS011;6154;51.550;12.138;2023-02-07T21:51:43;25.73;;;12.43;;
12181;SDS011;6154;51.550;12.138;2023-02-07T21:54:12;38.20;;;15.35;;
12181;SDS011;6154;51.550;12.138;2023-02-07T21:56:41;37.10;;;16.20;;
12181;SDS011;6154;51.550;12.138;2023-02-07T21:59:13;45.50;;;18.55;;
12181;SDS011;6154;51.550;12.138;2023-02-07T22:01:43;32.03;;;14.73;;
12181;SDS011;6154;51.550;12.138;2023-02-07T22:04:13;37.53;;;17.20;;
12181;SDS011;6154;51.550;12.138;2023-02-07T22:06:42;29.02;;;13.40;;
12181;SDS011;6154;51.550;12.138;2023-02-07T22:09:14;35.97;;;15.63;;
12181;SDS011;6154;51.550;12.138;2023-02-07T22:11:43;32.45;;;13.15;;
12181;SDS011;6154;51.550;12.138;2023-02-07T22:14:14;43.50;;;16.12;;
12181;SDS011;6154;51.550;12.138;2023-02-07T22:16:43;24.92;;;13.38;;
12181;SDS011;6154;51.550;12.138;2023-02-07T22:19:12;32.03;;;13.35;;
12181;SDS011;6154;51.550;12.138;2023-02-07T22:21:43;31.05;;;12.15;;
12181;SDS011;6154;51.550;12.138;2023-02-07T22:24:12;33.22;;;15.93;;
12181;SDS011;6154;51.550;12.138;2023-02-07T22:26:42;40.53;;;15.27;;
12181;SDS011;6154;51.550;12.138;2023-02-07T22:29:11;37.22;;;13.50;;
12181;SDS011;6154;51.550;12.138;2023-02-07T22:31:41;29.43;;;13.17;;
12181;SDS011;6154;51.550;12.138;2023-02-07T22:34:10;32.40;;;14.07;;
12181;SDS011;6154;51.550;12.138;2023-02-07T22:36:45;34.90;;;14.27;;